sensor_id;sensor_type;location;lat;lon;timestamp;P1;durP1;ratioP1;P2;durP2;ratioP2
43998;SDS011;51319;52.162;5.302;2022-09-09T00:00:37;5.00;;;1.30;;
43998;SDS011;51319;52.162;5.302;2022-09-09T00:03:14;6.72;;;1.50;;
43998;SDS011;51319;52.162;5.302;2022-09-09T00:11:30;3.80;;;1.58;;
43998;SDS011;51319;52.162;5.302;2022-09-09T00:14:20;2.47;;;1.35;;
43998;SDS011;51319;52.162;5.302;2022-09-09T00:17:00;3.50;;;1.60;;
43998;SDS011;51319;52.162;5.302;2022-09-09T00:19:37;4.55;;;1.88;;
43998;SDS011;51319;52.162;5.302;2022-09-09T00:22:21;2.95;;;1.67;;
43998;SDS011;51319;52.162;5.302;2022-09-09T00:25:01;2.05;;;1.50;;
43998;SDS011;51319;52.162;5.302;2022-09-09T00:27:47;2.40;;;1.40;;
43998;SDS011;51319;52.162;5.302;2022-09-09T00:32:48;5.13;;;2.20;;
43998;SDS011;51319;52.162;5.302;2022-09-09T00:35:23;4.20;;;2.30;;
43998;SDS011;51319;52.162;5.302;2022-09-09T00:37:53;7.72;;;2.65;;
43998;SDS011;51319;52.162;5.302;2022-09-09T00:40:25;5.32;;;2.22;;
43998;SDS011;51319;52.162;5.302;2022-09-09T00:43:05;6.63;;;2.17;;
43998;SDS011;51319;52.162;5.302;2022-09-09T00:48:35;6.10;;;2.40;;
43998;SDS011;51319;52.162;5.302;2022-09-09T00:51:12;6.15;;;2.20;;
43998;SDS011;51319;52.162;5.302;2022-09-09T00:53:56;2.78;;;2.53;;
43998;SDS011;51319;52.162;5.302;2022-09-09T00:59:48;5.75;;;2.38;;
43998;SDS011;51319;52.162;5.302;2022-09-09T01:03:02;5.45;;;2.90;;
43998;SDS011;51319;52.162;5.302;2022-09-09T01:08:00;4.82;;;2.60;;
43998;SDS011;51319;52.162;5.302;2022-09-09T01:10:47;5.50;;;2.80;;
43998;SDS011;51319;52.162;5.302;2022-09-09T01:13:22;7.45;;;3.20;;
43998;SDS011;51319;52.162;5.302;2022-09-09T01:15:51;8.13;;;3.40;;
43998;SDS011;51319;52.162;5.302;2022-09-09T01:18:23;6.45;;;3.30;;
43998;SDS011;51319;52.162;5.302;2022-09-09T01:23:59;5.85;;;3.40;;
43998;SDS011;51319;52.162;5.302;2022-09-09T01:26:43;6.57;;;3.28;;
43998;SDS011;51319;52.162;5.302;2022-09-09T01:29:17;6.88;;;2.90;;
43998;SDS011;51319;52.162;5.302;2022-09-09T01:34:24;4.00;;;3.20;;
43998;SDS011;51319;52.162;5.302;2022-09-09T01:37:01;6.72;;;3.25;;
43998;SDS011;51319;52.162;5.302;2022-09-09T01:39:30;7.18;;;3.60;;
43998;SDS011;51319;52.162;5.302;2022-09-09T01:41:58;4.60;;;3.10;;
43998;SDS011;51319;52.162;5.302;2022-09-09T01:44:25;7.60;;;3.63;;
43998;SDS011;51319;52.162;5.302;2022-09-09T01:46:53;6.80;;;3.65;;
43998;SDS011;51319;52.162;5.302;2022-09-09T01:49:19;9.07;;;3.38;;
43998;SDS011;51319;52.162;5.302;2022-09-09T01:51:46;7.10;;;3.45;;
43998;SDS011;51319;52.162;5.302;2022-09-09T01:54:15;6.95;;;4.00;;
43998;SDS011;51319;52.162;5.302;2022-09-09T01:56:55;5.72;;;3.90;;
43998;SDS011;51319;52.162;5.302;2022-09-09T01:59:57;9.00;;;3.65;;
43998;SDS011;51319;52.162;5.302;2022-09-09T02:02:36;6.70;;;3.85;;
43998;SDS011;51319;52.162;5.302;2022-09-09T02:05:39;7.22;;;4.18;;
43998;SDS011;51319;52.162;5.302;2022-09-09T02:08:10;7.80;;;4.10;;
43998;SDS011;51319;52.162;5.302;2022-09-09T02:13:17;9.38;;;4.43;;
43998;SDS011;51319;52.162;5.302;2022-09-09T02:15:58;8.25;;;3.70;;
43998;SDS011;51319;52.162;5.302;2022-09-09T02:21:13;8.98;;;4.68;;
43998;SDS011;51319;52.162;5.302;2022-09-09T02:23:43;7.10;;;4.57;;
43998;SDS011;51319;52.162;5.302;2022-09-09T02:26:13;8.68;;;4.70;;
43998;SDS011;51319;52.162;5.302;2022-09-09T02:28:46;7.93;;;4.63;;
43998;SDS011;51319;52.162;5.302;2022-09-09T02:31:16;8.57;;;4.45;;
43998;SDS011;51319;52.162;5.302;2022-09-09T02:33:45;10.65;;;4.55;;
43998;SDS011;51319;52.162;5.302;2022-09-09T02:36:18;6.28;;;4.60;;
43998;SDS011;51319;52.162;5.302;2022-09-09T02:38:46;9.55;;;4.68;;
43998;SDS011;51319;52.162;5.302;2022-09-09T02:41:19;8.68;;;5.05;;
43998;SDS011;51319;52.162;5.302;2022-09-09T02:43:48;12.02;;;5.18;;
43998;SDS011;51319;52.162;5.302;2022-09-09T02:46:24;10.23;;;4.35;;
43998;SDS011;51319;52.162;5.302;2022-09-09T02:49:03;7.40;;;4.68;;
43998;SDS011;51319;52.162;5.302;2022-09-09T02:52:04;12.35;;;5.47;;
43998;SDS011;51319;52.162;5.302;2022-09-09T02:54:34;9.00;;;4.95;;
43998;SDS011;51319;52.162;5.302;2022-09-09T02:59:50;8.68;;;4.72;;
43998;SDS011;51319;52.162;5.302;2022-09-09T03:02:18;13.18;;;5.55;;
43998;SDS011;51319;52.162;5.302;2022-09-09T03:04:44;9.50;;;5.60;;
43998;SDS011;51319;52.162;5.302;2022-09-09T03:07:16;8.23;;;5.60;;
43998;SDS011;51319;52.162;5.302;2022-09-09T03:09:46;7.63;;;5.50;;
43998;SDS011;51319;52.162;5.302;2022-09-09T03:12:12;9.48;;;5.20;;
43998;SDS011;51319;52.162;5.302;2022-09-09T03:14:38;13.18;;;5.75;;
43998;SDS011;51319;52.162;5.302;2022-09-09T03:17:05;11.10;;;5.35;;
43998;SDS011;51319;52.162;5.302;2022-09-09T03:19:31;9.88;;;5.75;;
43998;SDS011;51319;52.162;5.302;2022-09-09T03:22:00;12.45;;;6.07;;
43998;SDS011;51319;52.162;5.302;2022-09-09T03:24:26;9.48;;;6.10;;
43998;SDS011;51319;52.162;5.302;2022-09-09T03:26:52;11.90;;;5.40;;
43998;SDS011;51319;52.162;5.302;2022-09-09T03:29:21;10.27;;;5.95;;
43998;SDS011;51319;52.162;5.302;2022-09-09T03:31:47;13.15;;;5.63;;
43998;SDS011;51319;52.162;5.302;2022-09-09T03:34:13;10.35;;;5.38;;
43998;SDS011;51319;52.162;5.302;2022-09-09T03:36:40;12.05;;;6.47;;
43998;SDS011;51319;52.162;5.302;2022-09-09T03:39:06;11.48;;;7.05;;
43998;SDS011;51319;52.162;5.302;2022-09-09T03:41:32;13.25;;;6.43;;
43998;SDS011;51319;52.162;5.302;2022-09-09T03:43:59;15.45;;;7.60;;
43998;SDS011;51319;52.162;5.302;2022-09-09T03:46:26;14.00;;;6.22;;
43998;SDS011;51319;52.162;5.302;2022-09-09T03:48:52;14.88;;;6.45;;
43998;SDS011;51319;52.162;5.302;2022-09-09T03:51:18;11.90;;;6.30;;
43998;SDS011;51319;52.162;5.302;2022-09-09T03:53:45;11.35;;;7.10;;
43998;SDS011;51319;52.162;5.302;2022-09-09T03:56:11;10.18;;;5.88;;
43998;SDS011;51319;52.162;5.302;2022-09-09T03:58:39;13.65;;;6.13;;
43998;SDS011;51319;52.162;5.302;2022-09-09T04:01:09;10.10;;;6.20;;
43998;SDS011;51319;52.162;5.302;2022-09-09T04:03:40;16.40;;;7.20;;
43998;SDS011;51319;52.162;5.302;2022-09-09T04:06:07;12.98;;;6.70;;
43998;SDS011;51319;52.162;5.302;2022-09-09T04:08:35;14.07;;;7.32;;
43998;SDS011;51319;52.162;5.302;2022-09-09T04:11:02;14.52;;;5.80;;
43998;SDS011;51319;52.162;5.302;2022-09-09T04:13:32;12.65;;;6.68;;
43998;SDS011;51319;52.162;5.302;2022-09-09T04:16:00;14.85;;;6.60;;
43998;SDS011;51319;52.162;5.302;2022-09-09T04:18:27;11.13;;;6.45;;
43998;SDS011;51319;52.162;5.302;2022-09-09T04:20:54;12.20;;;6.68;;
43998;SDS011;51319;52.162;5.302;2022-09-09T04:23:22;13.15;;;6.88;;
43998;SDS011;51319;52.162;5.302;2022-09-09T04:25:51;16.95;;;6.93;;
43998;SDS011;51319;52.162;5.302;2022-09-09T04:28:19;9.85;;;6.28;;
43998;SDS011;51319;52.162;5.302;2022-09-09T04:30:47;13.77;;;6.93;;
43998;SDS011;51319;52.162;5.302;2022-09-09T04:33:14;19.42;;;6.53;;
43998;SDS011;51319;52.162;5.302;2022-09-09T04:35:44;13.70;;;6.93;;
43998;SDS011;51319;52.162;5.302;2022-09-09T04:38:12;11.90;;;6.10;;
43998;SDS011;51319;52.162;5.302;2022-09-09T04:40:39;8.63;;;6.45;;
43998;SDS011;51319;52.162;5.302;2022-09-09T04:43:08;16.80;;;6.13;;
43998;SDS011;51319;52.162;5.302;2022-09-09T04:48:07;14.82;;;5.97;;
43998;SDS011;51319;52.162;5.302;2022-09-09T04:50:33;16.95;;;6.63;;
43998;SDS011;51319;52.162;5.302;2022-09-09T04:53:00;18.02;;;6.45;;
43998;SDS011;51319;52.162;5.302;2022-09-09T04:55:27;14.48;;;6.20;;
43998;SDS011;51319;52.162;5.302;2022-09-09T04:57:53;17.77;;;6.90;;
43998;SDS011;51319;52.162;5.302;2022-09-09T05:00:19;10.43;;;6.53;;
43998;SDS011;51319;52.162;5.302;2022-09-09T05:02:45;15.90;;;7.00;;
43998;SDS011;51319;52.162;5.302;2022-09-09T05:05:13;15.55;;;7.20;;
43998;SDS011;51319;52.162;5.302;2022-09-09T05:07:39;10.15;;;5.97;;
43998;SDS011;51319;52.162;5.302;2022-09-09T05:10:05;15.68;;;7.63;;
43998;SDS011;51319;52.162;5.302;2022-09-09T05:12:31;10.13;;;7.13;;
43998;SDS011;51319;52.162;5.302;2022-09-09T05:14:58;14.50;;;7.10;;
43998;SDS011;51319;52.162;5.302;2022-09-09T05:17:24;13.82;;;6.93;;
43998;SDS011;51319;52.162;5.302;2022-09-09T05:19:50;10.55;;;6.80;;
43998;SDS011;51319;52.162;5.302;2022-09-09T05:22:19;14.73;;;6.63;;
43998;SDS011;51319;52.162;5.302;2022-09-09T05:24:47;15.73;;;8.07;;
43998;SDS011;51319;52.162;5.302;2022-09-09T05:27:13;18.35;;;7.50;;
43998;SDS011;51319;52.162;5.302;2022-09-09T05:29:40;12.40;;;6.38;;
43998;SDS011;51319;52.162;5.302;2022-09-09T05:32:08;19.95;;;6.90;;
43998;SDS011;51319;52.162;5.302;2022-09-09T05:34:40;20.33;;;7.05;;
43998;SDS011;51319;52.162;5.302;2022-09-09T05:37:06;14.48;;;7.03;;
43998;SDS011;51319;52.162;5.302;2022-09-09T05:39:33;18.38;;;8.02;;
43998;SDS011;51319;52.162;5.302;2022-09-09T05:42:02;16.08;;;7.28;;
43998;SDS011;51319;52.162;5.302;2022-09-09T05:44:30;17.67;;;6.80;;
43998;SDS011;51319;52.162;5.302;2022-09-09T05:46:57;16.48;;;6.88;;
43998;SDS011;51319;52.162;5.302;2022-09-09T05:49:23;20.23;;;6.90;;
43998;SDS011;51319;52.162;5.302;2022-09-09T05:51:49;13.05;;;6.78;;
43998;SDS011;51319;52.162;5.302;2022-09-09T05:54:16;19.52;;;7.10;;
43998;SDS011;51319;52.162;5.302;2022-09-09T05:56:42;14.73;;;6.15;;
43998;SDS011;51319;52.162;5.302;2022-09-09T05:59:09;16.95;;;7.13;;
43998;SDS011;51319;52.162;5.302;2022-09-09T06:01:36;15.20;;;5.70;;
43998;SDS011;51319;52.162;5.302;2022-09-09T06:04:06;15.70;;;5.97;;
43998;SDS011;51319;52.162;5.302;2022-09-09T06:06:33;17.30;;;5.78;;
43998;SDS011;51319;52.162;5.302;2022-09-09T06:09:02;11.10;;;5.05;;
43998;SDS011;51319;52.162;5.302;2022-09-09T06:11:32;20.85;;;6.35;;
43998;SDS011;51319;52.162;5.302;2022-09-09T06:13:59;12.80;;;5.10;;
43998;SDS011;51319;52.162;5.302;2022-09-09T06:16:27;20.90;;;5.60;;
43998;SDS011;51319;52.162;5.302;2022-09-09T06:18:54;12.57;;;4.50;;
43998;SDS011;51319;52.162;5.302;2022-09-09T06:23:49;9.55;;;4.70;;
43998;SDS011;51319;52.162;5.302;2022-09-09T06:26:17;13.88;;;4.63;;
43998;SDS011;51319;52.162;5.302;2022-09-09T06:28:46;10.60;;;4.20;;
43998;SDS011;51319;52.162;5.302;2022-09-09T06:31:14;11.13;;;4.22;;
43998;SDS011;51319;52.162;5.302;2022-09-09T06:33:43;9.82;;;4.00;;
43998;SDS011;51319;52.162;5.302;2022-09-09T06:36:10;10.35;;;3.72;;
43998;SDS011;51319;52.162;5.302;2022-09-09T06:38:39;10.75;;;3.30;;
43998;SDS011;51319;52.162;5.302;2022-09-09T06:41:05;14.10;;;3.15;;
43998;SDS011;51319;52.162;5.302;2022-09-09T06:43:32;8.18;;;3.10;;
43998;SDS011;51319;52.162;5.302;2022-09-09T06:46:02;15.30;;;3.15;;
43998;SDS011;51319;52.162;5.302;2022-09-09T06:48:35;16.70;;;3.70;;
43998;SDS011;51319;52.162;5.302;2022-09-09T06:51:03;10.98;;;3.40;;
43998;SDS011;51319;52.162;5.302;2022-09-09T06:53:32;12.07;;;3.17;;
43998;SDS011;51319;52.162;5.302;2022-09-09T06:56:13;12.77;;;2.85;;
43998;SDS011;51319;52.162;5.302;2022-09-09T06:58:51;8.35;;;2.78;;
43998;SDS011;51319;52.162;5.302;2022-09-09T07:01:19;9.43;;;2.95;;
43998;SDS011;51319;52.162;5.302;2022-09-09T07:03:47;7.30;;;2.42;;
43998;SDS011;51319;52.162;5.302;2022-09-09T07:06:17;13.27;;;3.45;;
43998;SDS011;51319;52.162;5.302;2022-09-09T07:08:54;11.30;;;2.70;;
43998;SDS011;51319;52.162;5.302;2022-09-09T07:11:24;12.80;;;3.03;;
43998;SDS011;51319;52.162;5.302;2022-09-09T07:13:56;11.90;;;2.63;;
43998;SDS011;51319;52.162;5.302;2022-09-09T07:16:23;9.85;;;2.45;;
43998;SDS011;51319;52.162;5.302;2022-09-09T07:18:50;12.55;;;2.50;;
43998;SDS011;51319;52.162;5.302;2022-09-09T07:21:18;13.80;;;2.80;;
43998;SDS011;51319;52.162;5.302;2022-09-09T07:23:45;6.43;;;1.67;;
43998;SDS011;51319;52.162;5.302;2022-09-09T07:26:15;14.23;;;2.53;;
43998;SDS011;51319;52.162;5.302;2022-09-09T07:28:45;8.20;;;2.70;;
43998;SDS011;51319;52.162;5.302;2022-09-09T07:31:32;8.90;;;2.17;;
43998;SDS011;51319;52.162;5.302;2022-09-09T07:34:01;10.50;;;2.95;;
43998;SDS011;51319;52.162;5.302;2022-09-09T07:36:29;14.02;;;2.67;;
43998;SDS011;51319;52.162;5.302;2022-09-09T07:39:03;7.88;;;2.50;;
43998;SDS011;51319;52.162;5.302;2022-09-09T07:44:06;11.07;;;2.40;;
43998;SDS011;51319;52.162;5.302;2022-09-09T07:49:00;6.03;;;2.10;;
43998;SDS011;51319;52.162;5.302;2022-09-09T07:51:27;8.93;;;2.15;;
43998;SDS011;51319;52.162;5.302;2022-09-09T07:53:56;12.13;;;2.60;;
43998;SDS011;51319;52.162;5.302;2022-09-09T07:56:24;16.83;;;2.58;;
43998;SDS011;51319;52.162;5.302;2022-09-09T07:58:52;7.32;;;2.05;;
43998;SDS011;51319;52.162;5.302;2022-09-09T08:01:22;12.93;;;3.30;;
43998;SDS011;51319;52.162;5.302;2022-09-09T08:03:57;14.98;;;2.58;;
43998;SDS011;51319;52.162;5.302;2022-09-09T08:06:29;7.43;;;2.08;;
43998;SDS011;51319;52.162;5.302;2022-09-09T08:08:58;7.57;;;2.30;;
43998;SDS011;51319;52.162;5.302;2022-09-09T08:11:26;9.45;;;2.25;;
43998;SDS011;51319;52.162;5.302;2022-09-09T08:13:53;11.25;;;2.92;;
43998;SDS011;51319;52.162;5.302;2022-09-09T08:16:27;18.85;;;3.28;;
43998;SDS011;51319;52.162;5.302;2022-09-09T08:18:56;11.32;;;2.45;;
43998;SDS011;51319;52.162;5.302;2022-09-09T08:21:24;14.02;;;2.40;;
43998;SDS011;51319;52.162;5.302;2022-09-09T08:23:53;14.05;;;2.75;;
43998;SDS011;51319;52.162;5.302;2022-09-09T08:26:30;8.32;;;2.22;;
43998;SDS011;51319;52.162;5.302;2022-09-09T08:29:10;8.40;;;2.20;;
43998;SDS011;51319;52.162;5.302;2022-09-09T08:31:38;10.40;;;2.28;;
43998;SDS011;51319;52.162;5.302;2022-09-09T08:34:06;12.57;;;2.78;;
43998;SDS011;51319;52.162;5.302;2022-09-09T08:36:34;7.50;;;2.45;;
43998;SDS011;51319;52.162;5.302;2022-09-09T08:39:02;13.15;;;2.33;;
43998;SDS011;51319;52.162;5.302;2022-09-09T08:50:29;11.00;;;2.13;;
43998;SDS011;51319;52.162;5.302;2022-09-09T08:53:04;10.95;;;2.50;;
43998;SDS011;51319;52.162;5.302;2022-09-09T08:55:47;9.70;;;2.10;;
43998;SDS011;51319;52.162;5.302;2022-09-09T08:58:19;12.50;;;2.25;;
43998;SDS011;51319;52.162;5.302;2022-09-09T09:01:05;8.98;;;2.05;;
43998;SDS011;51319;52.162;5.302;2022-09-09T09:09:23;9.77;;;2.33;;
43998;SDS011;51319;52.162;5.302;2022-09-09T09:12:01;10.77;;;2.58;;
43998;SDS011;51319;52.162;5.302;2022-09-09T09:14:35;14.52;;;2.33;;
43998;SDS011;51319;52.162;5.302;2022-09-09T09:17:10;9.85;;;2.63;;
43998;SDS011;51319;52.162;5.302;2022-09-09T09:19:48;10.55;;;2.30;;
43998;SDS011;51319;52.162;5.302;2022-09-09T09:30:39;8.82;;;2.08;;
43998;SDS011;51319;52.162;5.302;2022-09-09T09:33:25;8.98;;;2.28;;
43998;SDS011;51319;52.162;5.302;2022-09-09T09:35:58;13.95;;;2.42;;
43998;SDS011;51319;52.162;5.302;2022-09-09T09:38:26;13.18;;;5.65;;
43998;SDS011;51319;52.162;5.302;2022-09-09T09:41:13;9.23;;;2.70;;
43998;SDS011;51319;52.162;5.302;2022-09-09T09:43:40;15.40;;;1.92;;
43998;SDS011;51319;52.162;5.302;2022-09-09T09:46:18;10.60;;;2.33;;
43998;SDS011;51319;52.162;5.302;2022-09-09T09:49:01;11.15;;;2.22;;
43998;SDS011;51319;52.162;5.302;2022-09-09T09:51:31;14.68;;;2.92;;
43998;SDS011;51319;52.162;5.302;2022-09-09T09:54:17;13.18;;;2.30;;
43998;SDS011;51319;52.162;5.302;2022-09-09T09:56:52;11.90;;;1.83;;
43998;SDS011;51319;52.162;5.302;2022-09-09T09:59:20;11.57;;;2.42;;
43998;SDS011;51319;52.162;5.302;2022-09-09T10:02:14;10.65;;;2.30;;
43998;SDS011;51319;52.162;5.302;2022-09-09T10:04:46;10.80;;;2.75;;
43998;SDS011;51319;52.162;5.302;2022-09-09T10:07:19;14.35;;;2.35;;
43998;SDS011;51319;52.162;5.302;2022-09-09T10:09:52;8.68;;;2.15;;
43998;SDS011;51319;52.162;5.302;2022-09-09T10:15:07;7.78;;;1.95;;
43998;SDS011;51319;52.162;5.302;2022-09-09T10:18:03;9.73;;;2.42;;
43998;SDS011;51319;52.162;5.302;2022-09-09T10:21:04;21.35;;;3.38;;
43998;SDS011;51319;52.162;5.302;2022-09-09T10:32:38;9.23;;;2.53;;
43998;SDS011;51319;52.162;5.302;2022-09-09T10:34:58;11.20;;;2.55;;
43998;SDS011;51319;52.162;5.302;2022-09-09T10:51:40;8.30;;;1.85;;
43998;SDS011;51319;52.162;5.302;2022-09-09T10:59:59;9.25;;;2.08;;
43998;SDS011;51319;52.162;5.302;2022-09-09T11:02:33;9.23;;;2.20;;
43998;SDS011;51319;52.162;5.302;2022-09-09T11:07:34;8.90;;;1.80;;
43998;SDS011;51319;52.162;5.302;2022-09-09T11:10:17;6.53;;;1.63;;
43998;SDS011;51319;52.162;5.302;2022-09-09T11:12:45;11.93;;;2.40;;
43998;SDS011;51319;52.162;5.302;2022-09-09T11:15:17;7.55;;;1.77;;
43998;SDS011;51319;52.162;5.302;2022-09-09T11:17:49;8.00;;;2.03;;
43998;SDS011;51319;52.162;5.302;2022-09-09T11:20:20;9.77;;;2.03;;
43998;SDS011;51319;52.162;5.302;2022-09-09T11:25:31;7.85;;;2.08;;
43998;SDS011;51319;52.162;5.302;2022-09-09T11:38:51;18.15;;;9.57;;
43998;SDS011;51319;52.162;5.302;2022-09-09T11:41:20;5.90;;;2.10;;
43998;SDS011;51319;52.162;5.302;2022-09-09T11:43:51;9.02;;;2.33;;
43998;SDS011;51319;52.162;5.302;2022-09-09T11:46:19;9.02;;;1.65;;
43998;SDS011;51319;52.162;5.302;2022-09-09T11:48:59;7.03;;;1.63;;
43998;SDS011;51319;52.162;5.302;2022-09-09T11:51:27;6.07;;;1.30;;
43998;SDS011;51319;52.162;5.302;2022-09-09T11:53:59;9.48;;;1.90;;
43998;SDS011;51319;52.162;5.302;2022-09-09T11:56:32;6.57;;;1.63;;
43998;SDS011;51319;52.162;5.302;2022-09-09T11:59:03;6.80;;;1.35;;
43998;SDS011;51319;52.162;5.302;2022-09-09T12:01:38;6.80;;;1.35;;
43998;SDS011;51319;52.162;5.302;2022-09-09T12:06:51;7.15;;;2.22;;
43998;SDS011;51319;52.162;5.302;2022-09-09T12:09:52;8.82;;;1.73;;
43998;SDS011;51319;52.162;5.302;2022-09-09T12:12:38;4.97;;;1.67;;
43998;SDS011;51319;52.162;5.302;2022-09-09T12:17:42;10.48;;;2.10;;
43998;SDS011;51319;52.162;5.302;2022-09-09T12:20:12;5.20;;;1.60;;
43998;SDS011;51319;52.162;5.302;2022-09-09T12:22:51;7.18;;;2.85;;
43998;SDS011;51319;52.162;5.302;2022-09-09T12:25:48;24.27;;;3.05;;
43998;SDS011;51319;52.162;5.302;2022-09-09T12:28:25;8.45;;;2.08;;
43998;SDS011;51319;52.162;5.302;2022-09-09T12:33:51;8.82;;;2.40;;
43998;SDS011;51319;52.162;5.302;2022-09-09T12:36:27;7.43;;;2.45;;
43998;SDS011;51319;52.162;5.302;2022-09-09T12:38:57;4.53;;;1.70;;
43998;SDS011;51319;52.162;5.302;2022-09-09T12:41:36;7.63;;;2.50;;
43998;SDS011;51319;52.162;5.302;2022-09-09T12:44:06;6.93;;;2.00;;
43998;SDS011;51319;52.162;5.302;2022-09-09T12:46:35;11.15;;;2.42;;
43998;SDS011;51319;52.162;5.302;2022-09-09T12:49:18;10.10;;;2.70;;
43998;SDS011;51319;52.162;5.302;2022-09-09T12:51:49;10.57;;;2.92;;
43998;SDS011;51319;52.162;5.302;2022-09-09T12:54:16;8.52;;;2.35;;
43998;SDS011;51319;52.162;5.302;2022-09-09T12:56:45;7.03;;;2.35;;
43998;SDS011;51319;52.162;5.302;2022-09-09T12:59:46;13.48;;;2.80;;
43998;SDS011;51319;52.162;5.302;2022-09-09T13:04:48;9.80;;;1.73;;
43998;SDS011;51319;52.162;5.302;2022-09-09T13:07:16;7.57;;;1.90;;
43998;SDS011;51319;52.162;5.302;2022-09-09T13:09:47;8.32;;;1.80;;
43998;SDS011;51319;52.162;5.302;2022-09-09T13:12:18;11.00;;;2.40;;
43998;SDS011;51319;52.162;5.302;2022-09-09T13:14:47;6.50;;;1.80;;
43998;SDS011;51319;52.162;5.302;2022-09-09T13:17:23;7.53;;;2.05;;
43998;SDS011;51319;52.162;5.302;2022-09-09T13:19:51;7.47;;;2.05;;
43998;SDS011;51319;52.162;5.302;2022-09-09T13:22:31;6.63;;;2.60;;
43998;SDS011;51319;52.162;5.302;2022-09-09T13:25:03;4.45;;;1.70;;
43998;SDS011;51319;52.162;5.302;2022-09-09T13:27:33;6.10;;;1.92;;
43998;SDS011;51319;52.162;5.302;2022-09-09T13:30:20;6.70;;;2.60;;
43998;SDS011;51319;52.162;5.302;2022-09-09T13:35:49;14.30;;;2.35;;
43998;SDS011;51319;52.162;5.302;2022-09-09T13:38:19;6.57;;;2.38;;
43998;SDS011;51319;52.162;5.302;2022-09-09T13:40:58;5.57;;;2.58;;
43998;SDS011;51319;52.162;5.302;2022-09-09T13:43:51;7.82;;;1.65;;
43998;SDS011;51319;52.162;5.302;2022-09-09T13:46:36;4.15;;;1.65;;
43998;SDS011;51319;52.162;5.302;2022-09-09T13:54:13;8.82;;;2.40;;
43998;SDS011;51319;52.162;5.302;2022-09-09T13:56:41;6.38;;;1.95;;
43998;SDS011;51319;52.162;5.302;2022-09-09T13:59:12;7.70;;;2.53;;
43998;SDS011;51319;52.162;5.302;2022-09-09T14:01:45;8.63;;;1.92;;
43998;SDS011;51319;52.162;5.302;2022-09-09T14:04:11;7.72;;;2.17;;
43998;SDS011;51319;52.162;5.302;2022-09-09T14:06:38;6.32;;;2.03;;
43998;SDS011;51319;52.162;5.302;2022-09-09T14:09:05;8.88;;;2.30;;
43998;SDS011;51319;52.162;5.302;2022-09-09T14:11:32;7.60;;;2.55;;
43998;SDS011;51319;52.162;5.302;2022-09-09T14:13:58;8.02;;;2.22;;
43998;SDS011;51319;52.162;5.302;2022-09-09T14:16:26;8.70;;;2.10;;
43998;SDS011;51319;52.162;5.302;2022-09-09T14:18:53;6.90;;;2.60;;
43998;SDS011;51319;52.162;5.302;2022-09-09T14:21:22;6.35;;;2.40;;
43998;SDS011;51319;52.162;5.302;2022-09-09T14:23:49;8.95;;;2.55;;
43998;SDS011;51319;52.162;5.302;2022-09-09T14:26:15;9.40;;;3.53;;
43998;SDS011;51319;52.162;5.302;2022-09-09T14:28:41;9.50;;;3.28;;
43998;SDS011;51319;52.162;5.302;2022-09-09T14:31:20;10.45;;;2.65;;
43998;SDS011;51319;52.162;5.302;2022-09-09T14:33:47;8.18;;;4.28;;
43998;SDS011;51319;52.162;5.302;2022-09-09T14:36:13;7.60;;;3.15;;
43998;SDS011;51319;52.162;5.302;2022-09-09T14:38:40;13.00;;;3.78;;
43998;SDS011;51319;52.162;5.302;2022-09-09T14:41:11;9.00;;;2.97;;
43998;SDS011;51319;52.162;5.302;2022-09-09T14:43:42;8.75;;;3.42;;
43998;SDS011;51319;52.162;5.302;2022-09-09T14:46:10;6.88;;;3.13;;
43998;SDS011;51319;52.162;5.302;2022-09-09T14:48:38;7.40;;;3.22;;
43998;SDS011;51319;52.162;5.302;2022-09-09T14:53:39;16.27;;;3.90;;
43998;SDS011;51319;52.162;5.302;2022-09-09T14:56:10;5.53;;;2.80;;
43998;SDS011;51319;52.162;5.302;2022-09-09T14:58:41;9.65;;;2.95;;
43998;SDS011;51319;52.162;5.302;2022-09-09T15:01:10;6.22;;;3.28;;
43998;SDS011;51319;52.162;5.302;2022-09-09T15:03:39;8.45;;;2.95;;
43998;SDS011;51319;52.162;5.302;2022-09-09T15:06:07;12.88;;;2.92;;
43998;SDS011;51319;52.162;5.302;2022-09-09T15:08:39;7.65;;;2.72;;
43998;SDS011;51319;52.162;5.302;2022-09-09T15:11:08;6.97;;;2.58;;
43998;SDS011;51319;52.162;5.302;2022-09-09T15:13:36;6.90;;;2.60;;
43998;SDS011;51319;52.162;5.302;2022-09-09T15:16:04;9.10;;;2.53;;
43998;SDS011;51319;52.162;5.302;2022-09-09T15:18:31;9.65;;;2.58;;
43998;SDS011;51319;52.162;5.302;2022-09-09T15:20:59;9.98;;;1.95;;
43998;SDS011;51319;52.162;5.302;2022-09-09T15:23:28;7.45;;;1.80;;
43998;SDS011;51319;52.162;5.302;2022-09-09T15:25:57;5.97;;;1.98;;
43998;SDS011;51319;52.162;5.302;2022-09-09T15:28:24;7.22;;;1.88;;
43998;SDS011;51319;52.162;5.302;2022-09-09T15:30:50;3.90;;;1.30;;
43998;SDS011;51319;52.162;5.302;2022-09-09T15:33:19;5.82;;;1.33;;
43998;SDS011;51319;52.162;5.302;2022-09-09T15:35:46;3.83;;;1.40;;
43998;SDS011;51319;52.162;5.302;2022-09-09T15:38:13;5.25;;;1.40;;
43998;SDS011;51319;52.162;5.302;2022-09-09T15:40:40;8.23;;;1.85;;
43998;SDS011;51319;52.162;5.302;2022-09-09T15:43:06;5.00;;;1.30;;
43998;SDS011;51319;52.162;5.302;2022-09-09T15:45:35;5.03;;;1.00;;
43998;SDS011;51319;52.162;5.302;2022-09-09T15:48:01;5.25;;;1.00;;
43998;SDS011;51319;52.162;5.302;2022-09-09T15:50:28;4.03;;;1.13;;
43998;SDS011;51319;52.162;5.302;2022-09-09T15:52:57;5.85;;;1.85;;
43998;SDS011;51319;52.162;5.302;2022-09-09T15:55:23;4.97;;;1.30;;
43998;SDS011;51319;52.162;5.302;2022-09-09T15:57:51;3.10;;;1.30;;
43998;SDS011;51319;52.162;5.302;2022-09-09T16:00:18;6.38;;;1.10;;
43998;SDS011;51319;52.162;5.302;2022-09-09T16:02:48;2.28;;;1.10;;
43998;SDS011;51319;52.162;5.302;2022-09-09T16:05:15;2.55;;;0.90;;
43998;SDS011;51319;52.162;5.302;2022-09-09T16:07:41;5.50;;;1.13;;
43998;SDS011;51319;52.162;5.302;2022-09-09T16:10:09;3.85;;;1.10;;
43998;SDS011;51319;52.162;5.302;2022-09-09T16:12:36;3.10;;;1.20;;
43998;SDS011;51319;52.162;5.302;2022-09-09T16:15:02;5.50;;;1.23;;
43998;SDS011;51319;52.162;5.302;2022-09-09T16:17:29;4.85;;;1.17;;
43998;SDS011;51319;52.162;5.302;2022-09-09T16:19:55;3.47;;;1.27;;
43998;SDS011;51319;52.162;5.302;2022-09-09T16:22:23;4.00;;;1.05;;
43998;SDS011;51319;52.162;5.302;2022-09-09T16:24:49;7.45;;;1.85;;
43998;SDS011;51319;52.162;5.302;2022-09-09T16:27:15;3.42;;;1.15;;
43998;SDS011;51319;52.162;5.302;2022-09-09T16:29:41;5.95;;;1.55;;
43998;SDS011;51319;52.162;5.302;2022-09-09T16:32:08;4.72;;;1.98;;
43998;SDS011;51319;52.162;5.302;2022-09-09T16:34:35;3.67;;;1.40;;
43998;SDS011;51319;52.162;5.302;2022-09-09T16:37:01;3.45;;;1.33;;
43998;SDS011;51319;52.162;5.302;2022-09-09T16:39:28;5.13;;;1.40;;
43998;SDS011;51319;52.162;5.302;2022-09-09T16:41:54;6.40;;;1.55;;
43998;SDS011;51319;52.162;5.302;2022-09-09T16:44:20;4.05;;;1.63;;
43998;SDS011;51319;52.162;5.302;2022-09-09T16:46:47;7.13;;;1.58;;
43998;SDS011;51319;52.162;5.302;2022-09-09T16:49:14;5.57;;;1.63;;
43998;SDS011;51319;52.162;5.302;2022-09-09T16:51:43;4.53;;;2.38;;
43998;SDS011;51319;52.162;5.302;2022-09-09T16:54:14;7.53;;;1.83;;
43998;SDS011;51319;52.162;5.302;2022-09-09T16:56:43;2.58;;;1.50;;
43998;SDS011;51319;52.162;5.302;2022-09-09T16:59:12;8.10;;;2.10;;
43998;SDS011;51319;52.162;5.302;2022-09-09T17:01:49;5.88;;;1.65;;
43998;SDS011;51319;52.162;5.302;2022-09-09T17:04:17;3.38;;;1.70;;
43998;SDS011;51319;52.162;5.302;2022-09-09T17:06:46;6.53;;;1.73;;
43998;SDS011;51319;52.162;5.302;2022-09-09T17:09:14;5.32;;;1.88;;
43998;SDS011;51319;52.162;5.302;2022-09-09T17:11:41;7.75;;;2.17;;
43998;SDS011;51319;52.162;5.302;2022-09-09T17:14:08;6.57;;;2.50;;
43998;SDS011;51319;52.162;5.302;2022-09-09T17:16:36;5.13;;;2.08;;
43998;SDS011;51319;52.162;5.302;2022-09-09T17:19:05;10.52;;;2.40;;